createdAt,value
2018-07-15T00:02:18.041Z,8.30
2018-07-15T00:04:46.355Z,9.37
2018-07-15T00:07:14.660Z,9.10
2018-07-15T00:09:43.202Z,9.30
2018-07-15T00:12:11.610Z,9.30
2018-07-15T00:14:39.941Z,8.90
2018-07-15T00:17:08.234Z,10.00
2018-07-15T00:19:36.528Z,9.10
2018-07-15T00:22:04.820Z,9.13
2018-07-15T00:24:33.197Z,9.40
2018-07-15T00:27:01.589Z,8.57
2018-07-15T00:29:29.929Z,9.40
2018-07-15T00:31:58.289Z,9.27
2018-07-15T00:34:26.611Z,9.53
2018-07-15T00:36:54.883Z,10.20
2018-07-15T00:39:22.929Z,9.97
2018-07-15T00:41:51.297Z,10.03
2018-07-15T00:44:19.555Z,9.40
2018-07-15T00:46:47.919Z,9.57
2018-07-15T00:49:16.331Z,9.60
2018-07-15T00:51:44.660Z,9.83
2018-07-15T00:54:12.988Z,9.17
2018-07-15T00:56:41.309Z,8.87
2018-07-15T00:59:09.613Z,9.93
2018-07-15T01:01:37.987Z,9.40
2018-07-15T01:04:06.637Z,9.57
2018-07-15T01:06:35.041Z,10.10
2018-07-15T01:09:03.835Z,10.10
2018-07-15T01:11:32.175Z,10.40
2018-07-15T01:14:00.556Z,9.20
2018-07-15T01:16:28.836Z,9.27
2018-07-15T01:18:57.148Z,12.97
2018-07-15T01:21:25.490Z,9.57
2018-07-15T01:23:53.748Z,9.60
2018-07-15T01:26:22.086Z,10.23
2018-07-15T01:28:50.428Z,9.70
2018-07-15T01:31:18.781Z,9.20
2018-07-15T01:33:47.094Z,9.80
2018-07-15T01:36:15.372Z,10.20
2018-07-15T01:38:43.664Z,10.60
2018-07-15T01:41:11.934Z,11.40
2018-07-15T01:43:40.234Z,10.97
2018-07-15T01:46:08.491Z,10.67
2018-07-15T01:48:36.867Z,10.73
2018-07-15T01:51:05.203Z,10.13
2018-07-15T01:53:33.518Z,9.63
2018-07-15T01:56:01.855Z,9.83
2018-07-15T01:58:30.201Z,11.27
2018-07-15T02:00:58.465Z,11.03
2018-07-15T02:03:26.741Z,10.30
2018-07-15T02:05:55.086Z,10.90
2018-07-15T02:08:23.399Z,10.77
2018-07-15T02:10:51.729Z,10.83
2018-07-15T02:13:20.096Z,10.67
2018-07-15T02:15:48.343Z,11.10
2018-07-15T02:18:16.635Z,9.77
2018-07-15T02:20:44.970Z,9.60
2018-07-15T02:23:13.256Z,9.50
2018-07-15T02:25:41.597Z,10.17
2018-07-15T02:28:09.871Z,11.50
2018-07-15T02:30:38.200Z,10.30
2018-07-15T02:33:06.509Z,10.60
2018-07-15T02:35:34.592Z,9.97
2018-07-15T02:38:02.928Z,9.77
2018-07-15T02:40:31.382Z,10.30
2018-07-15T02:42:59.679Z,9.60
2018-07-15T02:45:27.987Z,9.30
2018-07-15T02:47:56.333Z,9.90
2018-07-15T02:50:24.575Z,13.10
2018-07-15T02:52:52.943Z,10.20
2018-07-15T02:55:21.226Z,9.97
2018-07-15T02:57:50.440Z,9.93
2018-07-15T03:00:18.706Z,13.03
2018-07-15T03:02:47.399Z,9.53
2018-07-15T03:05:15.733Z,9.87
2018-07-15T03:07:44.016Z,13.03
2018-07-15T03:10:12.473Z,10.83
2018-07-15T03:12:40.769Z,10.30
2018-07-15T03:15:09.085Z,11.03
2018-07-15T03:17:37.343Z,9.83
2018-07-15T03:20:05.619Z,11.10
2018-07-15T03:22:33.898Z,11.33
2018-07-15T03:25:02.220Z,10.20
2018-07-15T03:27:30.566Z,10.40
2018-07-15T03:29:59.010Z,10.03
2018-07-15T03:32:27.361Z,9.83
2018-07-15T03:34:56.210Z,10.67
2018-07-15T03:37:24.585Z,11.47
2018-07-15T03:39:53.030Z,10.47
2018-07-15T03:42:21.223Z,14.03
2018-07-15T03:44:49.513Z,12.10
2018-07-15T03:47:17.852Z,16.83
2018-07-15T03:49:45.951Z,15.43
2018-07-15T03:52:14.284Z,18.90
2018-07-15T03:54:42.566Z,16.40
2018-07-15T03:57:11.022Z,12.50
2018-07-15T03:59:39.416Z,11.27
2018-07-15T04:02:07.799Z,14.77
2018-07-15T04:04:36.078Z,15.43
2018-07-15T04:07:04.349Z,18.67
2018-07-15T04:09:32.728Z,14.90
2018-07-15T04:12:01.051Z,16.87
2018-07-15T04:14:29.387Z,12.83
2018-07-15T04:16:57.702Z,15.93
2018-07-15T04:19:25.990Z,15.10
2018-07-15T04:21:54.412Z,16.27
2018-07-15T04:24:22.691Z,18.13
2018-07-15T04:26:51.237Z,16.77
2018-07-15T04:29:19.559Z,14.50
2018-07-15T04:31:47.857Z,13.80
2018-07-15T04:34:16.153Z,14.37
2018-07-15T04:36:44.417Z,15.60
2018-07-15T04:39:12.760Z,13.07
2018-07-15T04:41:41.052Z,14.20
2018-07-15T04:44:09.058Z,19.10
2018-07-15T04:46:37.361Z,17.93
2018-07-15T04:49:05.673Z,12.63
2018-07-15T04:51:34.011Z,14.17
2018-07-15T04:54:02.300Z,14.13
2018-07-15T04:56:30.630Z,12.90
2018-07-15T04:58:58.964Z,13.17
2018-07-15T05:01:27.213Z,14.63
2018-07-15T05:03:55.573Z,12.40
2018-07-15T05:06:23.861Z,12.80
2018-07-15T05:08:52.212Z,15.60
2018-07-15T05:11:20.568Z,13.20
2018-07-15T05:13:48.835Z,12.80
2018-07-15T05:16:17.118Z,13.20
2018-07-15T05:18:45.339Z,13.70
2018-07-15T05:21:13.618Z,13.53
2018-07-15T05:23:41.850Z,12.93
2018-07-15T05:26:10.116Z,13.40
2018-07-15T05:28:38.373Z,13.60
2018-07-15T05:31:07.504Z,13.57
2018-07-15T05:33:35.812Z,12.87
2018-07-15T05:36:04.173Z,13.80
2018-07-15T05:38:32.456Z,13.80
2018-07-15T05:41:00.769Z,13.97
2018-07-15T05:43:29.007Z,14.20
2018-07-15T05:45:58.065Z,22.40
2018-07-15T05:48:26.402Z,15.47
2018-07-15T05:50:54.736Z,12.47
2018-07-15T05:53:23.027Z,13.30
2018-07-15T05:55:51.386Z,13.60
2018-07-15T05:58:19.670Z,13.17
2018-07-15T06:00:48.039Z,13.83
2018-07-15T06:03:16.294Z,13.10
2018-07-15T06:05:44.635Z,12.77
2018-07-15T06:08:12.954Z,12.90
2018-07-15T06:10:41.334Z,15.37
2018-07-15T06:13:09.549Z,15.07
2018-07-15T06:15:37.883Z,12.77
2018-07-15T06:18:06.274Z,13.33
2018-07-15T06:20:34.557Z,13.83
2018-07-15T06:23:02.950Z,13.43
2018-07-15T06:25:31.288Z,10.93
2018-07-15T06:27:59.625Z,13.07
2018-07-15T06:30:27.924Z,11.70
2018-07-15T06:32:56.255Z,12.23
2018-07-15T06:35:24.573Z,11.23
2018-07-15T06:37:53.249Z,11.43
2018-07-15T06:40:21.531Z,10.97
2018-07-15T06:42:49.971Z,11.00
2018-07-15T06:45:18.380Z,10.37
2018-07-15T06:47:46.891Z,11.83
2018-07-15T06:50:15.207Z,11.67
2018-07-15T06:52:43.678Z,11.43
2018-07-15T06:55:12.118Z,10.50
2018-07-15T06:57:40.577Z,12.03
2018-07-15T07:00:09.272Z,11.97
2018-07-15T07:02:37.624Z,10.40
2018-07-15T07:05:05.983Z,11.67
2018-07-15T07:07:34.440Z,14.80
2018-07-15T07:10:02.869Z,10.63
2018-07-15T07:12:31.262Z,11.63
2018-07-15T07:14:59.517Z,10.30
2018-07-15T07:17:27.826Z,10.30
2018-07-15T07:19:56.216Z,11.10
2018-07-15T07:22:24.584Z,11.27
2018-07-15T07:24:52.853Z,11.63
2018-07-15T07:27:21.964Z,10.57
2018-07-15T07:29:50.277Z,12.87
2018-07-15T07:32:18.633Z,10.43
2018-07-15T07:34:47.041Z,10.40
2018-07-15T07:37:15.341Z,10.80
2018-07-15T07:39:43.613Z,10.73
2018-07-15T07:42:12.054Z,10.73
2018-07-15T07:44:40.404Z,11.00
2018-07-15T07:47:08.949Z,10.60
2018-07-15T07:49:37.257Z,11.40
2018-07-15T07:52:06.978Z,10.60
2018-07-15T07:54:35.501Z,10.07
2018-07-15T07:57:04.026Z,10.90
2018-07-15T07:59:32.557Z,10.33
2018-07-15T08:02:01.077Z,12.73
2018-07-15T08:04:29.317Z,9.80
2018-07-15T08:06:57.645Z,10.43
2018-07-15T08:09:25.883Z,11.73
2018-07-15T08:11:54.394Z,9.80
2018-07-15T08:14:22.759Z,9.50
2018-07-15T08:16:51.220Z,9.30
2018-07-15T08:19:19.561Z,8.80
2018-07-15T08:21:48.195Z,10.00
2018-07-15T08:24:16.572Z,10.17
2018-07-15T08:26:45.079Z,10.33
2018-07-15T08:29:13.468Z,10.00
2018-07-15T08:31:41.782Z,9.93
2018-07-15T08:34:10.088Z,9.33
2018-07-15T08:36:38.425Z,10.20
2018-07-15T08:39:07.803Z,9.43
2018-07-15T08:41:36.303Z,11.23
2018-07-15T08:44:04.677Z,9.50
2018-07-15T08:46:32.997Z,9.00
2018-07-15T08:49:01.580Z,10.33
2018-07-15T08:51:29.860Z,10.53
2018-07-15T08:53:58.189Z,10.33
2018-07-15T08:56:26.483Z,9.67
2018-07-15T08:58:54.883Z,10.27
2018-07-15T09:01:23.202Z,11.67
2018-07-15T09:03:51.638Z,10.10
2018-07-15T09:06:19.998Z,10.20
2018-07-15T09:08:48.381Z,10.20
2018-07-15T09:11:16.780Z,9.33
2018-07-15T09:13:45.121Z,9.90
2018-07-15T09:16:13.428Z,10.97
2018-07-15T09:18:41.768Z,10.40
2018-07-15T09:21:10.118Z,9.87
2018-07-15T09:23:38.669Z,10.03
2018-07-15T09:26:06.967Z,10.30
2018-07-15T09:28:35.286Z,10.20
2018-07-15T09:31:10.082Z,9.10
2018-07-15T09:33:38.485Z,9.60
2018-07-15T09:36:06.807Z,10.27
2018-07-15T09:38:35.062Z,10.80
2018-07-15T09:41:03.477Z,9.27
2018-07-15T09:43:31.779Z,10.98
2018-07-15T09:46:00.153Z,9.10
2018-07-15T09:48:28.498Z,9.63
2018-07-15T09:50:56.895Z,10.37
2018-07-15T09:53:25.367Z,10.57
2018-07-15T09:55:53.726Z,11.05
2018-07-15T09:58:22.069Z,10.93
2018-07-15T10:00:56.620Z,10.40
2018-07-15T10:03:26.078Z,9.50
2018-07-15T10:05:54.427Z,10.70
2018-07-15T10:08:23.032Z,10.67
2018-07-15T10:10:51.394Z,10.47
2018-07-15T10:13:20.021Z,9.90
2018-07-15T10:15:48.670Z,12.40
2018-07-15T10:18:17.521Z,9.83
2018-07-15T10:20:45.858Z,10.67
2018-07-15T10:23:14.200Z,11.40
2018-07-15T10:25:42.520Z,10.38
2018-07-15T10:28:10.859Z,10.25
2018-07-15T10:30:39.160Z,9.97
2018-07-15T10:33:07.540Z,9.75
2018-07-15T10:35:35.796Z,10.05
2018-07-15T10:38:04.161Z,14.87
2018-07-15T10:40:32.576Z,10.60
2018-07-15T10:43:00.970Z,10.13
2018-07-15T10:45:29.516Z,9.65
2018-07-15T10:47:57.969Z,10.17
2018-07-15T10:50:25.996Z,10.23
2018-07-15T10:52:54.377Z,10.70
2018-07-15T10:55:22.826Z,10.18
2018-07-15T10:57:51.194Z,9.98
2018-07-15T11:00:19.469Z,10.60
2018-07-15T11:02:47.763Z,11.00
2018-07-15T11:05:16.043Z,10.88
2018-07-15T11:07:44.534Z,11.22
2018-07-15T11:10:12.960Z,10.48
2018-07-15T11:12:41.235Z,14.53
2018-07-15T11:15:09.552Z,11.33
2018-07-15T11:17:37.818Z,11.78
2018-07-15T11:20:06.978Z,12.03
2018-07-15T11:22:35.940Z,10.45
2018-07-15T11:25:04.266Z,9.85
2018-07-15T11:27:32.567Z,9.60
2018-07-15T11:30:00.889Z,9.88
2018-07-15T11:32:29.211Z,9.93
2018-07-15T11:34:57.548Z,10.00
2018-07-15T11:37:25.912Z,10.15
2018-07-15T11:39:54.165Z,9.35
2018-07-15T11:42:22.541Z,10.93
2018-07-15T11:44:51.033Z,10.00
2018-07-15T11:47:19.523Z,11.75
2018-07-15T11:49:47.888Z,9.08
2018-07-15T11:52:16.278Z,9.98
2018-07-15T11:54:44.693Z,10.13
2018-07-15T11:57:13.249Z,13.72
2018-07-15T11:59:41.671Z,9.53
2018-07-15T12:02:10.214Z,9.30
2018-07-15T12:04:38.771Z,9.38
2018-07-15T12:07:07.100Z,9.75
2018-07-15T12:09:35.504Z,9.15
2018-07-15T12:12:03.976Z,9.73
2018-07-15T12:14:32.432Z,8.93
2018-07-15T12:17:00.806Z,9.30
2018-07-15T12:19:29.206Z,8.95
2018-07-15T12:21:57.789Z,9.65
2018-07-15T12:24:26.742Z,9.40
2018-07-15T12:26:55.030Z,8.55
2018-07-15T12:29:23.078Z,8.33
2018-07-15T12:31:51.477Z,8.15
2018-07-15T12:34:19.798Z,9.68
2018-07-15T12:36:48.110Z,6.95
2018-07-15T12:39:16.480Z,7.67
2018-07-15T12:41:44.871Z,6.85
2018-07-15T12:44:13.228Z,8.50
2018-07-15T12:46:41.590Z,8.68
2018-07-15T12:49:09.862Z,7.45
2018-07-15T12:51:38.270Z,7.90
2018-07-15T12:54:06.715Z,7.97
2018-07-15T12:56:35.044Z,8.08
2018-07-15T12:59:03.511Z,10.50
2018-07-15T13:01:32.028Z,7.40
2018-07-15T13:04:00.414Z,7.97
2018-07-15T13:06:28.829Z,6.83
2018-07-15T13:08:57.239Z,7.67
2018-07-15T13:11:25.633Z,7.60
2018-07-15T13:13:54.159Z,7.55
2018-07-15T13:16:22.554Z,7.62
2018-07-15T13:18:50.790Z,8.15
2018-07-15T13:21:19.142Z,8.40
2018-07-15T13:23:47.462Z,7.33
2018-07-15T13:26:15.761Z,10.20
2018-07-15T13:28:44.118Z,7.17
2018-07-15T13:31:12.389Z,7.50
2018-07-15T13:33:40.658Z,7.42
2018-07-15T13:36:08.973Z,6.90
2018-07-15T13:38:37.328Z,7.33
2018-07-15T13:41:05.774Z,7.40
2018-07-15T13:43:34.082Z,25.72
2018-07-15T13:46:02.541Z,6.78
2018-07-15T13:48:30.863Z,15.00
2018-07-15T13:50:59.223Z,6.47
2018-07-15T13:53:27.534Z,6.10
2018-07-15T13:55:55.923Z,6.97
2018-07-15T13:58:24.343Z,6.10
2018-07-15T14:00:52.660Z,5.60
2018-07-15T14:03:21.131Z,7.03
2018-07-15T14:05:49.437Z,5.58
2018-07-15T14:08:18.051Z,5.83
2018-07-15T14:10:46.482Z,5.45
2018-07-15T14:13:14.759Z,5.97
2018-07-15T14:15:43.065Z,5.55
2018-07-15T14:18:11.387Z,5.40
2018-07-15T14:20:39.623Z,4.87
2018-07-15T14:23:07.916Z,4.87
2018-07-15T14:25:36.985Z,6.00
2018-07-15T14:28:05.744Z,4.80
2018-07-15T14:30:34.048Z,5.10
2018-07-15T14:33:02.361Z,5.20
2018-07-15T14:35:30.714Z,5.10
2018-07-15T14:37:59.127Z,7.37
2018-07-15T14:40:27.489Z,5.55
2018-07-15T14:42:55.823Z,5.60
2018-07-15T14:45:24.223Z,5.67
2018-07-15T14:47:52.504Z,5.40
2018-07-15T14:50:20.846Z,8.28
2018-07-15T14:52:49.266Z,5.47
2018-07-15T14:55:17.648Z,5.30
2018-07-15T14:57:45.942Z,5.15
2018-07-15T15:00:14.267Z,5.85
2018-07-15T15:02:42.659Z,5.50
2018-07-15T15:05:11.271Z,5.40
2018-07-15T15:07:40.015Z,5.40
2018-07-15T15:10:08.571Z,5.55
2018-07-15T15:12:37.165Z,5.20
2018-07-15T15:15:06.050Z,5.35
2018-07-15T15:17:35.141Z,5.37
2018-07-15T15:20:03.880Z,5.42
2018-07-15T15:22:32.340Z,5.80
2018-07-15T15:25:00.577Z,5.60
2018-07-15T15:27:29.118Z,6.25
2018-07-15T15:29:57.485Z,4.97
2018-07-15T15:32:25.796Z,5.40
2018-07-15T15:34:54.531Z,5.60
2018-07-15T15:37:22.995Z,8.00
2018-07-15T15:39:51.470Z,5.30
2018-07-15T15:42:20.002Z,5.78
2018-07-15T15:44:48.469Z,7.62
2018-07-15T15:47:16.930Z,5.85
2018-07-15T15:49:46.107Z,5.40
2018-07-15T15:52:14.824Z,6.10
2018-07-15T15:54:43.250Z,6.55
2018-07-15T15:57:11.773Z,6.12
2018-07-15T15:59:39.932Z,6.22
2018-07-15T16:02:08.634Z,5.92
2018-07-15T16:04:37.277Z,6.60
2018-07-15T16:07:06.245Z,6.30
2018-07-15T16:09:34.699Z,6.28
2018-07-15T16:12:03.848Z,6.42
2018-07-15T16:14:32.595Z,6.47
2018-07-15T16:17:01.267Z,6.17
2018-07-15T16:19:29.767Z,7.22
2018-07-15T16:21:58.424Z,6.35
2018-07-15T16:24:26.938Z,7.05
2018-07-15T16:26:56.119Z,11.78
2018-07-15T16:29:25.441Z,7.30
2018-07-15T16:31:53.791Z,7.13
2018-07-15T16:34:22.201Z,7.40
2018-07-15T16:36:51.346Z,10.20
2018-07-15T16:39:19.898Z,8.27
2018-07-15T16:41:48.576Z,9.67
2018-07-15T16:44:17.908Z,11.07
2018-07-15T16:46:46.215Z,11.87
2018-07-15T16:49:14.542Z,12.70
2018-07-15T16:51:42.959Z,10.40
2018-07-15T16:54:11.520Z,16.17
2018-07-15T16:56:39.955Z,11.67
2018-07-15T16:59:08.378Z,11.80
2018-07-15T17:01:37.043Z,11.63
2018-07-15T17:04:05.451Z,12.20
2018-07-15T17:06:34.212Z,12.70
2018-07-15T17:09:02.625Z,11.50
2018-07-15T17:11:30.792Z,11.73
2018-07-15T17:14:02.448Z,13.17
2018-07-15T17:16:31.355Z,13.83
2018-07-15T17:19:00.024Z,11.70
2018-07-15T17:21:28.454Z,11.13
2018-07-15T17:23:56.873Z,11.90
2018-07-15T17:26:25.298Z,13.23
2018-07-15T17:28:53.752Z,11.30
2018-07-15T17:31:22.175Z,11.27
2018-07-15T17:33:50.562Z,15.07
2018-07-15T17:36:19.307Z,9.50
2018-07-15T17:38:47.918Z,12.57
2018-07-15T17:41:18.140Z,9.37
2018-07-15T17:43:51.550Z,8.47
2018-07-15T17:46:22.097Z,7.87
2018-07-15T17:48:51.224Z,9.67
2018-07-15T17:51:19.533Z,7.87
2018-07-15T17:53:47.936Z,11.13
2018-07-15T17:56:16.765Z,10.10
2018-07-15T17:58:45.879Z,9.67
2018-07-15T18:01:16.848Z,10.20
2018-07-15T18:03:45.730Z,7.77
2018-07-15T18:06:14.550Z,6.73
2018-07-15T18:08:43.070Z,7.77
2018-07-15T18:11:11.369Z,7.83
2018-07-15T18:13:40.391Z,7.67
2018-07-15T18:16:09.308Z,7.90
2018-07-15T18:18:37.601Z,7.47
2018-07-15T18:21:05.907Z,10.87
2018-07-15T18:23:34.475Z,8.60
2018-07-15T18:26:02.900Z,8.87
2018-07-15T18:28:31.212Z,8.33
2018-07-15T18:30:59.543Z,9.87
2018-07-15T18:33:28.481Z,8.60
2018-07-15T18:35:56.903Z,8.93
2018-07-15T18:38:25.381Z,7.83
2018-07-15T18:40:53.781Z,8.57
2018-07-15T18:43:22.358Z,8.23
2018-07-15T18:45:50.750Z,8.77
2018-07-15T18:48:20.020Z,8.30
2018-07-15T18:50:48.545Z,7.90
2018-07-15T18:53:17.271Z,8.23
2018-07-15T18:55:48.400Z,7.47
2018-07-15T18:58:16.732Z,7.47
2018-07-15T19:00:45.346Z,7.60
2018-07-15T19:03:13.876Z,9.23
2018-07-15T19:05:42.183Z,8.70
2018-07-15T19:08:10.424Z,7.37
2018-07-15T19:10:38.845Z,7.70
2018-07-15T19:13:07.256Z,7.67
2018-07-15T19:15:35.624Z,7.17
2018-07-15T19:18:04.110Z,7.73
2018-07-15T19:20:32.793Z,7.80
2018-07-15T19:23:01.274Z,8.30
2018-07-15T19:25:29.646Z,8.40
2018-07-15T19:27:58.134Z,9.30
2018-07-15T19:30:26.487Z,8.57
2018-07-15T19:32:54.925Z,8.00
2018-07-15T19:35:23.246Z,8.70
2018-07-15T19:37:51.686Z,9.70
2018-07-15T19:40:19.998Z,9.67
2018-07-15T19:42:48.420Z,9.60
2018-07-15T19:45:16.709Z,9.47
2018-07-15T19:47:45.059Z,8.50
2018-07-15T19:50:13.463Z,8.87
2018-07-15T19:52:41.984Z,8.70
2018-07-15T19:55:10.434Z,8.87
2018-07-15T19:57:38.859Z,9.13
2018-07-15T20:00:07.491Z,10.23
2018-07-15T20:02:35.839Z,10.57
2018-07-15T20:05:04.350Z,9.40
2018-07-15T20:07:33.090Z,8.90
2018-07-15T20:10:02.104Z,9.10
2018-07-15T20:12:30.478Z,8.37
2018-07-15T20:14:58.845Z,10.97
2018-07-15T20:17:27.191Z,8.50
2018-07-15T20:19:55.801Z,11.00
2018-07-15T20:22:24.174Z,8.47
2018-07-15T20:24:52.571Z,8.70
2018-07-15T20:27:21.082Z,8.50
2018-07-15T20:29:50.001Z,8.87
2018-07-15T20:32:18.776Z,9.13
2018-07-15T20:34:47.390Z,9.23
2018-07-15T20:37:15.956Z,8.63
2018-07-15T20:39:44.513Z,8.33
2018-07-15T20:42:12.908Z,8.50
2018-07-15T20:44:41.731Z,7.53
2018-07-15T20:47:10.732Z,7.90
2018-07-15T20:49:40.061Z,8.37
2018-07-15T20:52:08.566Z,12.40
2018-07-15T20:54:36.848Z,7.90
2018-07-15T20:57:05.546Z,7.60
2018-07-15T20:59:33.873Z,8.50
2018-07-15T21:02:02.363Z,8.13
2018-07-15T21:04:32.476Z,8.33
2018-07-15T21:07:00.883Z,9.60
2018-07-15T21:09:29.299Z,8.57
2018-07-15T21:11:57.706Z,7.83
2018-07-15T21:14:26.023Z,8.50
2018-07-15T21:16:54.549Z,7.23
2018-07-15T21:19:22.815Z,8.80
2018-07-15T21:21:51.148Z,8.57
2018-07-15T21:24:19.470Z,7.97
2018-07-15T21:26:47.856Z,7.00
2018-07-15T21:29:16.158Z,7.70
2018-07-15T21:31:44.542Z,8.73
2018-07-15T21:34:12.940Z,7.90
2018-07-15T21:36:41.280Z,8.00
2018-07-15T21:39:10.268Z,9.80
2018-07-15T21:41:38.769Z,8.13
2018-07-15T21:44:07.346Z,7.70
2018-07-15T21:46:35.687Z,7.93
2018-07-15T21:49:04.085Z,7.87
2018-07-15T21:51:32.423Z,9.20
2018-07-15T21:54:00.732Z,7.17
2018-07-15T21:56:29.105Z,8.70
2018-07-15T21:58:57.526Z,9.07
2018-07-15T22:01:33.444Z,7.00
2018-07-15T22:04:01.742Z,8.10
2018-07-15T22:06:41.363Z,8.40
2018-07-15T22:09:20.842Z,7.10
2018-07-15T22:11:49.227Z,7.57
2018-07-15T22:14:17.506Z,8.70
2018-07-15T22:16:45.782Z,8.70
2018-07-15T22:19:14.071Z,7.60
2018-07-15T22:21:42.422Z,8.80
2018-07-15T22:24:10.665Z,7.50
2018-07-15T22:26:39.049Z,7.77
2018-07-15T22:29:07.334Z,7.53
2018-07-15T22:31:35.645Z,10.30
2018-07-15T22:34:04.042Z,6.97
2018-07-15T22:36:32.324Z,7.17
2018-07-15T22:39:00.642Z,7.83
2018-07-15T22:41:28.934Z,7.20
2018-07-15T22:43:57.282Z,7.47
2018-07-15T22:46:25.617Z,8.33
2018-07-15T22:48:53.893Z,7.97
2018-07-15T22:51:22.226Z,7.97
2018-07-15T22:53:50.543Z,8.90
2018-07-15T22:56:18.838Z,8.00
2018-07-15T22:58:47.163Z,7.63
2018-07-15T23:01:15.488Z,7.10
2018-07-15T23:03:43.772Z,7.30
2018-07-15T23:06:19.906Z,9.73
2018-07-15T23:08:48.230Z,8.10
2018-07-15T23:11:16.644Z,7.93
2018-07-15T23:13:44.923Z,8.97
2018-07-15T23:16:13.186Z,8.87
2018-07-15T23:18:41.428Z,7.93
2018-07-15T23:21:09.774Z,9.30
2018-07-15T23:23:39.111Z,8.20
2018-07-15T23:26:07.736Z,12.73
2018-07-15T23:28:36.131Z,7.90
2018-07-15T23:31:04.420Z,7.87
2018-07-15T23:33:32.755Z,8.00
2018-07-15T23:36:01.008Z,8.20
2018-07-15T23:38:29.372Z,8.23
2018-07-15T23:40:57.824Z,8.70
2018-07-15T23:43:26.088Z,7.87
2018-07-15T23:45:54.428Z,8.37
2018-07-15T23:48:22.726Z,8.73
2018-07-15T23:50:51.123Z,10.00
2018-07-15T23:53:19.513Z,7.93
2018-07-15T23:55:49.351Z,7.90
2018-07-15T23:58:17.584Z,8.00
